Sligo Airport - TAF
(Terminal Area Forecast)

Issued at 04:51 UTC on Wed. 3-Jun-20

--- METARS(SA) ---

SA/EISG NOT-AVAILABLE IN DATABANK

--- TAFS() ---

TAF EISG(SLIGO) 030200Z 0303/0312 33010KT 7000 BKN010 TEMPO

0303/0304 BKN005 BECMG 0303/0305 36015KT BECMG 0304/0306 BKN020 TEMPO

0306/0312 01016G26KT =

--- SIGMETS(WS) ---

IE - No VALID SIGMETS/Warnings FOR THIS AREA

--- SIGMETS Volcanic(WV) ---

IE - No VALID SIGMETS/Warnings FOR THIS AREA

--- SIGMETS(WS) ---

UK - No VALID SIGMETS/Warnings FOR THIS AREA

Sligo Airport - METARs

Latest METARs for Sligo and Donegal Airports - updated every 30 mins